Radstock, United Kingdom
Current Conditions -  °F | °C
As of 8:50 PM on Tuesday 25 Nov 2014 (Local Time) from EGGD Reporting Station
Light Rain Light Rain  
Wind Chill: 32°   Ceiling: 100
Heat Index: 39°   Visibility: 0.28mi
Dew Point: 39°   Wind: 10mph
Humidity: 100%   Direction: 30°NNE
Pressure: 30.03"   Gusts: NA
Location:  51.29°N, 2.46°W
Report Text: EGGD 252050Z 03009KT 0450 R27/0700 -RADZ FG OVC001 04/04 Q1017
Loading
Personal Weather Stations






























Interactive Weather Map New forecast layout! Learn more

10-Day Weather Forecast

Advertisements
Track Severe Weather on mobile